Time,TemperatureF,DewpointF,PressureIn,WindDirection,WindDirectionDegrees,WindSpeedMPH,WindSpeedGustMPH,Humidity,HourlyPrecipIn,Conditions,Clouds,dailyrainin,SoftwareType,DateUTC
2013-06-18 00:04:00,52.8,50.8,29.99,ENE,61,0.0,0.0,93,0.00,,,0.00,Wunderground v.1.15,2013-06-18 05:04:00,
2013-06-18 00:10:00,52.8,50.8,29.99,East,80,0.0,0.0,93,0.00,,,0.00,Wunderground v.1.15,2013-06-18 05:10:00,
2013-06-18 00:16:00,52.8,50.8,29.99,East,81,0.0,0.0,93,0.00,,,0.00,Wunderground v.1.15,2013-06-18 05:16:00,
2013-06-18 00:22:00,52.7,50.7,29.99,East,81,0.0,0.0,93,0.00,,,0.00,Wunderground v.1.15,2013-06-18 05:22:00,
2013-06-18 00:28:00,52.6,50.6,29.99,East,81,0.0,0.0,93,0.00,,,0.00,Wunderground v.1.15,2013-06-18 05:28:00,
2013-06-18 00:34:00,52.4,50.4,29.99,East,81,0.0,0.0,93,0.00,,,0.00,Wunderground v.1.15,2013-06-18 05:34:00,
2013-06-18 00:40:00,52.2,50.2,29.99,East,81,0.0,0.0,93,0.00,,,0.00,Wunderground v.1.15,2013-06-18 05:40:00,
2013-06-18 00:46:00,52.1,50.1,29.99,East,81,0.0,0.0,93,0.00,,,0.00,Wunderground v.1.15,2013-06-18 05:46:00,
2013-06-18 00:52:00,52.3,50.6,29.99,NE,42,0.0,0.0,94,0.00,,,0.00,Wunderground v.1.15,2013-06-18 05:52:00,
2013-06-18 00:58:00,52.5,50.8,29.99,East,81,0.0,2.0,94,0.00,,,0.00,Wunderground v.1.15,2013-06-18 05:58:00,
2013-06-18 01:04:00,52.4,50.4,29.99,NE,56,0.0,0.0,93,0.00,,,0.00,Wunderground v.1.15,2013-06-18 06:04:00,
2013-06-18 01:10:00,52.0,50.0,30.00,East,79,0.0,0.0,93,0.00,,,0.00,Wunderground v.1.15,2013-06-18 06:10:00,
2013-06-18 01:16:00,52.0,49.7,30.00,North,10,0.0,0.0,92,0.00,,,0.00,Wunderground v.1.15,2013-06-18 06:16:00,
2013-06-18 01:22:00,52.0,49.5,30.00,NNE,22,1.0,1.0,91,0.00,,,0.00,Wunderground v.1.15,2013-06-18 06:22:00,
2013-06-18 01:28:00,52.0,49.2,30.00,NE,54,1.0,3.0,90,0.00,,,0.00,Wunderground v.1.15,2013-06-18 06:28:00,
2013-06-18 01:34:00,52.0,48.9,29.99,ESE,117,1.0,1.0,89,0.00,,,0.00,Wunderground v.1.15,2013-06-18 06:34:00,
2013-06-18 01:40:00,51.9,48.2,30.00,ENE,57,0.0,0.0,87,0.00,,,0.00,Wunderground v.1.15,2013-06-18 06:40:00,
2013-06-18 01:46:00,51.9,47.8,30.00,NE,39,1.0,1.0,86,0.00,,,0.00,Wunderground v.1.15,2013-06-18 06:46:00,
2013-06-18 01:52:00,51.9,47.2,29.99,East,83,0.0,1.0,84,0.00,,,0.00,Wunderground v.1.15,2013-06-18 06:52:00,
2013-06-18 01:58:00,51.8,47.1,29.99,East,84,0.0,1.0,84,0.00,,,0.00,Wunderground v.1.15,2013-06-18 06:58:00,
2013-06-18 02:04:00,51.7,46.7,29.99,NE,36,0.0,0.0,83,0.00,,,0.00,Wunderground v.1.15,2013-06-18 07:04:00,
2013-06-18 02:10:00,51.5,46.5,29.99,ENE,70,0.0,0.0,83,0.00,,,0.00,Wunderground v.1.15,2013-06-18 07:10:00,
2013-06-18 02:16:00,51.3,46.3,29.99,NE,36,0.0,0.0,83,0.00,,,0.00,Wunderground v.1.15,2013-06-18 07:16:00,
2013-06-18 02:22:00,51.1,46.4,30.00,NE,36,0.0,0.0,84,0.00,,,0.00,Wunderground v.1.15,2013-06-18 07:22:00,
2013-06-18 02:28:00,50.8,46.1,30.00,NE,36,0.0,0.0,84,0.00,,,0.00,Wunderground v.1.15,2013-06-18 07:28:00,
2013-06-18 02:34:00,50.5,46.2,30.00,NE,36,0.0,0.0,85,0.00,,,0.00,Wunderground v.1.15,2013-06-18 07:34:00,
2013-06-18 02:40:00,50.3,46.3,30.00,NE,35,0.0,0.0,86,0.00,,,0.00,Wunderground v.1.15,2013-06-18 07:40:00,
2013-06-18 02:46:00,50.2,46.5,30.00,NE,36,0.0,0.0,87,0.00,,,0.00,Wunderground v.1.15,2013-06-18 07:46:00,
2013-06-18 02:52:00,50.1,46.7,30.00,NE,36,0.0,0.0,88,0.00,,,0.00,Wunderground v.1.15,2013-06-18 07:52:00,
2013-06-18 02:58:00,49.8,46.4,30.00,NE,36,0.0,0.0,88,0.00,,,0.00,Wunderground v.1.15,2013-06-18 07:58:00,
2013-06-18 03:04:00,49.6,46.5,30.00,East,80,0.0,0.0,89,0.00,,,0.00,Wunderground v.1.15,2013-06-18 08:04:00,
2013-06-18 03:10:00,49.6,46.8,30.00,NE,46,0.0,0.0,90,0.00,,,0.00,Wunderground v.1.15,2013-06-18 08:10:00,
2013-06-18 03:16:00,49.6,46.8,30.00,NW,310,0.0,1.0,90,0.00,,,0.00,Wunderground v.1.15,2013-06-18 08:16:00,
2013-06-18 03:22:00,49.7,47.2,30.00,NE,46,0.0,1.0,91,0.00,,,0.00,Wunderground v.1.15,2013-06-18 08:22:00,
2013-06-18 03:28:00,49.9,47.4,30.00,ESE,120,0.0,1.0,91,0.00,,,0.00,Wunderground v.1.15,2013-06-18 08:28:00,
2013-06-18 03:34:00,49.8,47.3,30.00,NE,38,0.0,0.0,91,0.00,,,0.00,Wunderground v.1.15,2013-06-18 08:34:00,
2013-06-18 03:40:00,49.8,47.0,30.00,NE,56,0.0,0.0,90,0.00,,,0.00,Wunderground v.1.15,2013-06-18 08:40:00,
2013-06-18 03:46:00,49.7,46.6,30.00,ENE,61,0.0,0.0,89,0.00,,,0.00,Wunderground v.1.15,2013-06-18 08:46:00,
2013-06-18 03:52:00,49.5,46.4,30.01,ENE,60,0.0,0.0,89,0.00,,,0.00,Wunderground v.1.15,2013-06-18 08:52:00,
2013-06-18 03:58:00,49.3,46.2,30.01,ENE,59,0.0,0.0,89,0.00,,,0.00,Wunderground v.1.15,2013-06-18 08:58:00,
2013-06-18 04:04:00,49.3,46.2,30.01,SSW,212,0.0,1.0,89,0.00,,,0.00,Wunderground v.1.15,2013-06-18 09:04:00,
2013-06-18 04:10:00,49.2,46.1,30.01,SSW,212,0.0,0.0,89,0.00,,,0.00,Wunderground v.1.15,2013-06-18 09:10:00,
2013-06-18 04:16:00,49.0,45.9,30.01,SSW,212,0.0,0.0,89,0.00,,,0.00,Wunderground v.1.15,2013-06-18 09:16:00,
2013-06-18 04:22:00,48.8,45.7,30.01,SSW,212,0.0,0.0,89,0.00,,,0.00,Wunderground v.1.15,2013-06-18 09:22:00,
2013-06-18 04:28:00,48.5,45.7,30.02,SSW,212,0.0,0.0,90,0.00,,,0.00,Wunderground v.1.15,2013-06-18 09:28:00,
2013-06-18 04:34:00,48.1,45.3,30.02,SSW,212,0.0,0.0,90,0.00,,,0.00,Wunderground v.1.15,2013-06-18 09:34:00,
2013-06-18 04:40:00,47.9,45.4,30.02,SSW,212,0.0,0.0,91,0.00,,,0.00,Wunderground v.1.15,2013-06-18 09:40:00,
2013-06-18 04:46:00,47.8,45.3,30.02,SSW,212,0.0,0.0,91,0.00,,,0.00,Wunderground v.1.15,2013-06-18 09:46:00,
2013-06-18 04:52:00,47.5,45.3,30.02,SSW,212,0.0,0.0,92,0.00,,,0.00,Wunderground v.1.15,2013-06-18 09:52:00,
2013-06-18 04:58:00,47.4,45.2,30.02,SSW,212,0.0,0.0,92,0.00,,,0.00,Wunderground v.1.15,2013-06-18 09:58:00,
2013-06-18 05:04:00,47.3,45.1,30.03,SSW,212,0.0,0.0,92,0.00,,,0.00,Wunderground v.1.15,2013-06-18 10:04:00,
2013-06-18 05:10:00,47.2,45.0,30.03,SSW,212,0.0,0.0,92,0.00,,,0.00,Wunderground v.1.15,2013-06-18 10:10:00,
2013-06-18 05:16:00,47.1,45.2,30.03,SSW,212,0.0,0.0,93,0.00,,,0.00,Wunderground v.1.15,2013-06-18 10:16:00,
2013-06-18 05:22:00,47.2,45.3,30.03,SSW,212,0.0,0.0,93,0.00,,,0.00,Wunderground v.1.15,2013-06-18 10:22:00,
2013-06-18 05:28:00,47.5,45.9,30.04,SE,131,0.0,0.0,94,0.00,,,0.00,Wunderground v.1.15,2013-06-18 10:28:00,
2013-06-18 05:34:00,47.7,45.8,30.04,SE,131,0.0,0.0,93,0.00,,,0.00,Wunderground v.1.15,2013-06-18 10:34:00,
2013-06-18 05:40:00,48.0,46.1,30.04,SE,131,0.0,0.0,93,0.00,,,0.00,Wunderground v.1.15,2013-06-18 10:40:00,
2013-06-18 05:46:00,48.1,46.2,30.04,SE,131,0.0,0.0,93,0.00,,,0.00,Wunderground v.1.15,2013-06-18 10:46:00,
2013-06-18 05:52:00,48.3,46.4,30.04,SE,131,0.0,0.0,93,0.00,,,0.00,Wunderground v.1.15,2013-06-18 10:52:00,
2013-06-18 05:58:00,48.5,46.6,30.04,SE,131,0.0,0.0,93,0.00,,,0.00,Wunderground v.1.15,2013-06-18 10:58:00,
2013-06-18 06:04:00,48.9,47.0,30.04,SE,131,0.0,0.0,93,0.00,,,0.00,Wunderground v.1.15,2013-06-18 11:04:00,
2013-06-18 06:10:00,49.2,47.3,30.04,SSE,152,0.0,0.0,93,0.00,,,0.00,Wunderground v.1.15,2013-06-18 11:10:00,
2013-06-18 06:16:00,49.7,47.5,30.04,SE,139,0.0,0.0,92,0.00,,,0.00,Wunderground v.1.15,2013-06-18 11:16:00,
2013-06-18 06:22:00,50.2,47.7,30.04,SE,134,0.0,0.0,91,0.00,,,0.00,Wunderground v.1.15,2013-06-18 11:22:00,
2013-06-18 06:28:00,50.8,48.3,30.04,SSE,165,0.0,1.0,91,0.00,,,0.00,Wunderground v.1.15,2013-06-18 11:28:00,
2013-06-18 06:34:00,51.4,48.6,30.04,SSE,148,1.0,1.0,90,0.00,,,0.00,Wunderground v.1.15,2013-06-18 11:34:00,
2013-06-18 06:40:00,51.7,48.6,30.04,SE,131,0.0,0.0,89,0.00,,,0.00,Wunderground v.1.15,2013-06-18 11:40:00,
2013-06-18 06:46:00,51.8,48.1,30.05,SSE,148,0.0,0.0,87,0.00,,,0.00,Wunderground v.1.15,2013-06-18 11:46:00,
2013-06-18 06:52:00,52.0,48.3,30.05,ESE,108,0.0,1.0,87,0.00,,,0.00,Wunderground v.1.15,2013-06-18 11:52:00,
2013-06-18 06:58:00,52.2,48.1,30.05,SSE,153,1.0,1.0,86,0.00,,,0.00,Wunderground v.1.15,2013-06-18 11:58:00,
2013-06-18 07:04:00,52.6,48.2,30.05,SE,131,1.0,1.0,85,0.00,,,0.00,Wunderground v.1.15,2013-06-18 12:04:00,
2013-06-18 07:10:00,53.0,48.6,30.06,SE,145,0.0,1.0,85,0.00,,,0.00,Wunderground v.1.15,2013-06-18 12:10:00,
2013-06-18 07:16:00,53.3,49.2,30.06,East,82,1.0,1.0,86,0.00,,,0.00,Wunderground v.1.15,2013-06-18 12:16:00,
2013-06-18 07:22:00,53.5,49.7,30.06,ENE,75,1.0,1.0,87,0.00,,,0.00,Wunderground v.1.15,2013-06-18 12:22:00,
2013-06-18 07:28:00,53.7,49.9,30.06,SSE,149,0.0,1.0,87,0.00,,,0.00,Wunderground v.1.15,2013-06-18 12:28:00,
2013-06-18 07:34:00,53.8,50.0,30.06,SE,136,0.0,1.0,87,0.00,,,0.00,Wunderground v.1.15,2013-06-18 12:34:00,
2013-06-18 07:40:00,53.9,49.8,30.06,ESE,117,1.0,1.0,86,0.00,,,0.00,Wunderground v.1.15,2013-06-18 12:40:00,
2013-06-18 07:46:00,54.1,49.7,30.06,NNE,26,0.0,1.0,85,0.00,,,0.00,Wunderground v.1.15,2013-06-18 12:46:00,
2013-06-18 07:52:00,54.3,49.9,30.06,NNE,13,0.0,0.0,85,0.00,,,0.00,Wunderground v.1.15,2013-06-18 12:52:00,
2013-06-18 07:58:00,54.7,50.3,30.07,WNW,284,0.0,2.0,85,0.00,,,0.00,Wunderground v.1.15,2013-06-18 12:58:00,
2013-06-18 08:04:00,55.1,50.4,30.07,WNW,287,0.0,1.0,84,0.00,,,0.00,Wunderground v.1.15,2013-06-18 13:04:00,
2013-06-18 08:10:00,55.7,50.3,30.07,North,3,0.0,0.0,82,0.00,,,0.00,Wunderground v.1.15,2013-06-18 13:10:00,
2013-06-18 08:16:00,55.7,50.3,30.07,ESE,117,1.0,1.0,82,0.00,,,0.00,Wunderground v.1.15,2013-06-18 13:16:00,
2013-06-18 08:22:00,55.9,50.5,30.07,West,280,0.0,1.0,82,0.00,,,0.00,Wunderground v.1.15,2013-06-18 13:22:00,
2013-06-18 08:28:00,56.0,49.9,30.07,ENE,60,0.0,1.0,80,0.00,,,0.00,Wunderground v.1.15,2013-06-18 13:28:00,
2013-06-18 08:34:00,56.6,50.5,30.08,ESE,103,1.0,1.0,80,0.00,,,0.00,Wunderground v.1.15,2013-06-18 13:34:00,
2013-06-18 08:40:00,56.7,49.9,30.07,West,275,1.0,1.0,78,0.00,,,0.00,Wunderground v.1.15,2013-06-18 13:40:00,
2013-06-18 08:46:00,57.5,50.7,30.08,East,98,0.0,1.0,78,0.00,,,0.00,Wunderground v.1.15,2013-06-18 13:46:00,
2013-06-18 08:52:00,58.2,50.7,30.08,East,79,0.0,0.0,76,0.00,,,0.00,Wunderground v.1.15,2013-06-18 13:52:00,
2013-06-18 08:58:00,58.1,49.9,30.07,NE,54,1.0,2.0,74,0.00,,,0.00,Wunderground v.1.15,2013-06-18 13:58:00,
2013-06-18 09:04:00,57.9,49.3,30.08,NNE,23,2.0,3.0,73,0.00,,,0.00,Wunderground v.1.15,2013-06-18 14:04:00,
2013-06-18 09:10:00,58.0,50.1,30.08,East,80,1.0,1.0,75,0.00,,,0.00,Wunderground v.1.15,2013-06-18 14:10:00,
2013-06-18 09:16:00,58.0,49.0,30.08,NNE,33,1.0,3.0,72,0.00,,,0.00,Wunderground v.1.15,2013-06-18 14:16:00,
2013-06-18 09:22:00,58.5,50.6,30.08,WNW,300,0.0,1.0,75,0.00,,,0.00,Wunderground v.1.15,2013-06-18 14:22:00,
2013-06-18 09:28:00,58.3,49.7,30.08,WNW,290,0.0,2.0,73,0.00,,,0.00,Wunderground v.1.15,2013-06-18 14:28:00,
2013-06-18 09:34:00,58.3,50.8,30.08,North,10,0.0,0.0,76,0.00,,,0.00,Wunderground v.1.15,2013-06-18 14:34:00,
2013-06-18 09:40:00,58.5,51.3,30.08,NW,310,0.0,0.0,77,0.00,,,0.00,Wunderground v.1.15,2013-06-18 14:40:00,
2013-06-18 09:46:00,58.7,51.2,30.09,WNW,287,0.0,0.0,76,0.00,,,0.00,Wunderground v.1.15,2013-06-18 14:46:00,
2013-06-18 09:52:00,58.5,51.3,30.08,NNW,342,0.0,0.0,77,0.00,,,0.00,Wunderground v.1.15,2013-06-18 14:52:00,
2013-06-18 09:58:00,58.3,51.5,30.08,WNW,282,0.0,1.0,78,0.00,,,0.00,Wunderground v.1.15,2013-06-18 14:58:00,
2013-06-18 10:04:00,57.5,50.3,30.08,West,269,0.0,1.0,77,0.00,,,0.00,Wunderground v.1.15,2013-06-18 15:04:00,
2013-06-18 10:10:00,57.0,50.9,30.08,WNW,299,0.0,0.0,80,0.00,,,0.00,Wunderground v.1.15,2013-06-18 15:10:00,
2013-06-18 10:16:00,56.9,51.1,30.08,West,281,0.0,1.0,81,0.00,,,0.00,Wunderground v.1.15,2013-06-18 15:16:00,
2013-06-18 10:22:00,57.0,50.9,30.08,West,277,0.0,1.0,80,0.00,,,0.00,Wunderground v.1.15,2013-06-18 15:22:00,
2013-06-18 10:28:00,57.2,51.8,30.08,WNW,299,1.0,1.0,82,0.00,,,0.00,Wunderground v.1.15,2013-06-18 15:28:00,
2013-06-18 10:34:00,57.3,51.5,30.08,North,4,0.0,0.0,81,0.00,,,0.00,Wunderground v.1.15,2013-06-18 15:34:00,
2013-06-18 10:40:00,57.1,51.3,30.08,West,281,0.0,1.0,81,0.00,,,0.00,Wunderground v.1.15,2013-06-18 15:40:00,
2013-06-18 10:46:00,56.8,51.4,30.08,WNW,287,1.0,1.0,82,0.00,,,0.00,Wunderground v.1.15,2013-06-18 15:46:00,
2013-06-18 10:52:00,57.0,51.6,30.08,WNW,297,1.0,1.0,82,0.00,,,0.00,Wunderground v.1.15,2013-06-18 15:52:00,
2013-06-18 10:58:00,57.6,52.5,30.08,WNW,287,0.0,1.0,83,0.00,,,0.00,Wunderground v.1.15,2013-06-18 15:58:00,
2013-06-18 11:04:00,58.5,52.7,30.08,WNW,295,0.0,0.0,81,0.00,,,0.00,Wunderground v.1.15,2013-06-18 16:04:00,
2013-06-18 11:10:00,59.0,53.2,30.08,ENE,64,0.0,0.0,81,0.00,,,0.00,Wunderground v.1.15,2013-06-18 16:10:00,
2013-06-18 11:16:00,59.5,52.6,30.08,NW,309,1.0,1.0,78,0.00,,,0.00,Wunderground v.1.15,2013-06-18 16:16:00,
2013-06-18 11:22:00,59.9,52.3,30.08,WNW,294,1.0,3.0,76,0.00,,,0.00,Wunderground v.1.15,2013-06-18 16:22:00,
2013-06-18 11:28:00,60.3,52.3,30.09,NE,46,1.0,3.0,75,0.00,,,0.00,Wunderground v.1.15,2013-06-18 16:28:00,
2013-06-18 11:34:00,60.4,52.1,30.09,NE,51,1.0,3.0,74,0.00,,,0.00,Wunderground v.1.15,2013-06-18 16:34:00,
2013-06-18 11:40:00,60.2,51.5,30.09,NNW,340,1.0,1.0,73,0.00,,,0.00,Wunderground v.1.15,2013-06-18 16:40:00,
2013-06-18 11:46:00,60.7,52.0,30.09,ESE,120,1.0,1.0,73,0.00,,,0.00,Wunderground v.1.15,2013-06-18 16:46:00,
2013-06-18 11:52:00,61.1,52.7,30.08,WNW,294,1.0,2.0,74,0.00,,,0.00,Wunderground v.1.15,2013-06-18 16:52:00,
2013-06-18 11:58:00,61.0,52.7,30.09,North,10,1.0,3.0,74,0.00,,,0.00,Wunderground v.1.15,2013-06-18 16:58:00,
2013-06-18 12:04:00,60.7,52.0,30.09,WNW,290,1.0,4.0,73,0.00,,,0.00,Wunderground v.1.15,2013-06-18 17:04:00,
2013-06-18 12:10:00,60.9,52.6,30.09,SW,232,1.0,1.0,74,0.00,,,0.00,Wunderground v.1.15,2013-06-18 17:10:00,
2013-06-18 12:16:00,61.6,52.9,30.08,WNW,294,1.0,1.0,73,0.00,,,0.00,Wunderground v.1.15,2013-06-18 17:16:00,
2013-06-18 12:22:00,61.9,53.1,30.08,WNW,294,1.0,1.0,73,0.00,,,0.00,Wunderground v.1.15,2013-06-18 17:22:00,
2013-06-18 12:28:00,62.5,54.5,30.08,North,9,1.0,3.0,75,0.00,,,0.00,Wunderground v.1.15,2013-06-18 17:28:00,
2013-06-18 12:34:00,62.6,53.1,30.08,West,271,1.0,1.0,71,0.00,,,0.00,Wunderground v.1.15,2013-06-18 17:34:00,
2013-06-18 12:40:00,62.2,53.1,30.08,WNW,285,1.0,1.0,72,0.00,,,0.00,Wunderground v.1.15,2013-06-18 17:40:00,
2013-06-18 12:46:00,62.3,52.8,30.08,WNW,284,1.0,1.0,71,0.00,,,0.00,Wunderground v.1.15,2013-06-18 17:46:00,
2013-06-18 12:52:00,62.1,53.3,30.08,WNW,297,1.0,1.0,73,0.00,,,0.00,Wunderground v.1.15,2013-06-18 17:52:00,
2013-06-18 12:58:00,62.2,52.3,30.07,WSW,253,1.0,2.0,70,0.00,,,0.00,Wunderground v.1.15,2013-06-18 17:58:00,
2013-06-18 13:04:00,61.9,53.1,30.08,WNW,290,1.0,1.0,73,0.00,,,0.00,Wunderground v.1.15,2013-06-18 18:04:00,
2013-06-18 13:10:00,61.8,52.3,30.08,WNW,284,1.0,1.0,71,0.00,,,0.00,Wunderground v.1.15,2013-06-18 18:10:00,
2013-06-18 13:16:00,62.5,53.7,30.07,West,278,1.0,2.0,73,0.00,,,0.00,Wunderground v.1.15,2013-06-18 18:16:00,
2013-06-18 13:22:00,62.8,52.1,30.07,WNW,290,1.0,2.0,68,0.00,,,0.00,Wunderground v.1.15,2013-06-18 18:22:00,
2013-06-18 13:28:00,63.2,50.8,30.07,West,276,1.0,2.0,64,0.00,,,0.00,Wunderground v.1.15,2013-06-18 18:28:00,
2013-06-18 13:34:00,63.7,52.1,30.08,SSW,201,1.0,2.0,66,0.00,,,0.00,Wunderground v.1.15,2013-06-18 18:34:00,
2013-06-18 13:40:00,64.1,51.2,30.08,NE,51,1.0,2.0,63,0.00,,,0.00,Wunderground v.1.15,2013-06-18 18:40:00,
2013-06-18 13:46:00,64.3,51.0,30.07,WNW,284,1.0,2.0,62,0.00,,,0.00,Wunderground v.1.15,2013-06-18 18:46:00,
2013-06-18 13:52:00,64.3,50.1,30.07,West,281,1.0,1.0,60,0.00,,,0.00,Wunderground v.1.15,2013-06-18 18:52:00,
2013-06-18 13:58:00,64.8,49.7,30.07,NW,313,1.0,3.0,58,0.00,,,0.00,Wunderground v.1.15,2013-06-18 18:58:00,
2013-06-18 14:04:00,64.8,49.2,30.07,East,101,1.0,1.0,57,0.00,,,0.00,Wunderground v.1.15,2013-06-18 19:04:00,
2013-06-18 14:10:00,65.6,48.5,30.07,ENE,68,1.0,1.0,54,0.00,,,0.00,Wunderground v.1.15,2013-06-18 19:10:00,
2013-06-18 14:16:00,65.8,46.6,30.07,WNW,293,1.0,3.0,50,0.00,,,0.00,Wunderground v.1.15,2013-06-18 19:16:00,
2013-06-18 14:22:00,66.1,49.9,30.07,WNW,288,1.0,1.0,56,0.00,,,0.00,Wunderground v.1.15,2013-06-18 19:22:00,
2013-06-18 14:28:00,66.6,46.8,30.07,NE,54,1.0,1.0,49,0.00,,,0.00,Wunderground v.1.15,2013-06-18 19:28:00,
2013-06-18 14:34:00,67.1,48.4,30.07,NNE,30,1.0,2.0,51,0.00,,,0.00,Wunderground v.1.15,2013-06-18 19:34:00,
2013-06-18 14:40:00,67.4,45.9,30.06,NNE,21,1.0,1.0,46,0.00,,,0.00,Wunderground v.1.15,2013-06-18 19:40:00,
2013-06-18 14:46:00,66.8,45.9,30.07,WNW,293,1.0,1.0,47,0.00,,,0.00,Wunderground v.1.15,2013-06-18 19:46:00,
2013-06-18 14:52:00,67.4,46.5,30.07,NNW,328,1.0,1.0,47,0.00,,,0.00,Wunderground v.1.15,2013-06-18 19:52:00,
2013-06-18 14:58:00,67.5,46.0,30.07,WNW,286,1.0,2.0,46,0.00,,,0.00,Wunderground v.1.15,2013-06-18 19:58:00,
2013-06-18 15:04:00,67.3,46.4,30.07,NW,318,1.0,2.0,47,0.00,,,0.00,Wunderground v.1.15,2013-06-18 20:04:00,
2013-06-18 15:10:00,67.1,45.6,30.07,NE,41,1.0,1.0,46,0.00,,,0.00,Wunderground v.1.15,2013-06-18 20:10:00,
2013-06-18 15:16:00,66.9,46.0,30.07,WNW,295,1.0,1.0,47,0.00,,,0.00,Wunderground v.1.15,2013-06-18 20:16:00,
2013-06-18 15:22:00,66.8,45.3,30.07,NW,305,0.0,0.0,46,0.00,,,0.00,Wunderground v.1.15,2013-06-18 20:22:00,
2013-06-18 15:28:00,66.7,48.5,30.07,WNW,291,1.0,1.0,52,0.00,,,0.00,Wunderground v.1.15,2013-06-18 20:28:00,
2013-06-18 15:34:00,66.7,47.5,30.07,NE,39,1.0,3.0,50,0.00,,,0.00,Wunderground v.1.15,2013-06-18 20:34:00,
2013-06-18 15:40:00,65.8,49.2,30.07,ENE,57,1.0,2.0,55,0.00,,,0.00,Wunderground v.1.15,2013-06-18 20:40:00,
2013-06-18 15:46:00,64.8,47.8,30.07,WNW,302,2.0,2.0,54,0.00,,,0.00,Wunderground v.1.15,2013-06-18 20:46:00,
2013-06-18 15:52:00,64.7,47.7,30.07,WNW,290,1.0,2.0,54,0.00,,,0.00,Wunderground v.1.15,2013-06-18 20:52:00,
2013-06-18 15:58:00,65.1,48.5,30.07,WNW,295,1.0,2.0,55,0.00,,,0.00,Wunderground v.1.15,2013-06-18 20:58:00,
2013-06-18 16:04:00,65.3,46.7,30.07,North,360,1.0,1.0,51,0.00,,,0.00,Wunderground v.1.15,2013-06-18 21:04:00,
2013-06-18 16:10:00,65.7,47.1,30.07,North,11,0.0,0.0,51,0.00,,,0.00,Wunderground v.1.15,2013-06-18 21:10:00,
2013-06-18 16:16:00,66.2,47.0,30.07,NE,37,0.0,2.0,50,0.00,,,0.00,Wunderground v.1.15,2013-06-18 21:16:00,
2013-06-18 16:22:00,66.0,44.6,30.07,WNW,293,1.0,3.0,46,0.00,,,0.00,Wunderground v.1.15,2013-06-18 21:22:00,
2013-06-18 16:28:00,66.2,44.2,30.07,NNE,20,1.0,3.0,45,0.00,,,0.00,Wunderground v.1.15,2013-06-18 21:28:00,
2013-06-18 16:34:00,65.8,44.4,30.07,NE,53,1.0,3.0,46,0.00,,,0.00,Wunderground v.1.15,2013-06-18 21:34:00,
2013-06-18 16:40:00,65.9,45.1,30.07,WSW,247,1.0,1.0,47,0.00,,,0.00,Wunderground v.1.15,2013-06-18 21:40:00,
2013-06-18 16:46:00,66.2,44.2,30.07,WNW,297,0.0,3.0,45,0.00,,,0.00,Wunderground v.1.15,2013-06-18 21:46:00,
2013-06-18 16:52:00,66.5,43.3,30.06,SSE,160,1.0,2.0,43,0.00,,,0.00,Wunderground v.1.15,2013-06-18 21:52:00,
2013-06-18 16:58:00,67.1,44.4,30.07,NNW,337,0.0,2.0,44,0.00,,,0.00,Wunderground v.1.15,2013-06-18 21:58:00,
2013-06-18 17:04:00,67.4,44.1,30.07,WNW,303,0.0,0.0,43,0.00,,,0.00,Wunderground v.1.15,2013-06-18 22:04:00,
2013-06-18 17:10:00,67.0,43.8,30.06,ENE,60,0.0,1.0,43,0.00,,,0.00,Wunderground v.1.15,2013-06-18 22:10:00,
2013-06-18 17:16:00,66.7,42.9,30.06,ENE,59,0.0,1.0,42,0.00,,,0.00,Wunderground v.1.15,2013-06-18 22:16:00,
2013-06-18 17:22:00,67.0,41.9,30.06,NW,312,0.0,1.0,40,0.00,,,0.00,Wunderground v.1.15,2013-06-18 22:22:00,
2013-06-18 17:28:00,67.5,43.0,30.06,NE,53,0.0,1.0,41,0.00,,,0.00,Wunderground v.1.15,2013-06-18 22:28:00,
2013-06-18 17:34:00,66.8,43.0,30.06,North,352,0.0,1.0,42,0.00,,,0.00,Wunderground v.1.15,2013-06-18 22:34:00,
2013-06-18 17:40:00,66.2,41.8,30.06,WNW,291,0.0,0.0,41,0.00,,,0.00,Wunderground v.1.15,2013-06-18 22:40:00,
2013-06-18 17:46:00,66.0,41.0,30.06,NW,309,0.0,0.0,40,0.00,,,0.00,Wunderground v.1.15,2013-06-18 22:46:00,
2013-06-18 17:52:00,65.7,42.0,30.06,NE,44,0.0,0.0,42,0.00,,,0.00,Wunderground v.1.15,2013-06-18 22:52:00,
2013-06-18 17:58:00,65.6,40.6,30.06,WNW,301,0.0,3.0,40,0.00,,,0.00,Wunderground v.1.15,2013-06-18 22:58:00,
2013-06-18 18:04:00,65.5,41.8,30.06,NNW,327,0.0,0.0,42,0.00,,,0.00,Wunderground v.1.15,2013-06-18 23:04:00,
2013-06-18 18:10:00,65.5,41.2,30.06,West,271,0.0,0.0,41,0.00,,,0.00,Wunderground v.1.15,2013-06-18 23:10:00,
2013-06-18 18:16:00,65.4,41.7,30.06,NNE,26,1.0,1.0,42,0.00,,,0.00,Wunderground v.1.15,2013-06-18 23:16:00,
2013-06-18 18:22:00,65.3,41.0,30.06,NE,37,1.0,1.0,41,0.00,,,0.00,Wunderground v.1.15,2013-06-18 23:22:00,
2013-06-18 18:28:00,65.2,41.5,30.06,NE,42,1.0,2.0,42,0.00,,,0.00,Wunderground v.1.15,2013-06-18 23:28:00,
2013-06-18 18:34:00,65.2,41.5,30.06,NNE,33,1.0,1.0,42,0.00,,,0.00,Wunderground v.1.15,2013-06-18 23:34:00,
2013-06-18 18:40:00,65.1,40.2,30.06,NE,53,0.0,0.0,40,0.00,,,0.00,Wunderground v.1.15,2013-06-18 23:40:00,
2013-06-18 18:46:00,65.1,40.8,30.06,NNE,30,1.0,1.0,41,0.00,,,0.00,Wunderground v.1.15,2013-06-18 23:46:00,
2013-06-18 18:52:00,64.8,41.8,30.06,NE,51,0.0,0.0,43,0.00,,,0.00,Wunderground v.1.15,2013-06-18 23:52:00,
2013-06-18 18:58:00,64.1,42.9,30.06,NE,43,0.0,0.0,46,0.00,,,0.00,Wunderground v.1.15,2013-06-18 23:58:00,
2013-06-18 19:04:00,63.3,48.7,30.06,WNW,288,0.0,1.0,59,0.00,,,0.00,Wunderground v.1.15,2013-06-19 00:04:00,
2013-06-18 19:10:00,62.3,49.5,30.06,NNE,31,0.0,0.0,63,0.00,,,0.00,Wunderground v.1.15,2013-06-19 00:10:00,
2013-06-18 19:16:00,61.2,48.1,30.06,NNW,340,0.0,0.0,62,0.00,,,0.00,Wunderground v.1.15,2013-06-19 00:16:00,
2013-06-18 19:22:00,60.7,46.3,30.06,ENE,66,0.0,0.0,59,0.00,,,0.00,Wunderground v.1.15,2013-06-19 00:22:00,
2013-06-18 19:28:00,60.3,46.4,30.06,NE,49,0.0,0.0,60,0.00,,,0.00,Wunderground v.1.15,2013-06-19 00:28:00,
2013-06-18 19:34:00,60.0,47.4,30.06,ENE,58,0.0,0.0,63,0.00,,,0.00,Wunderground v.1.15,2013-06-19 00:34:00,
2013-06-18 19:40:00,59.5,48.5,30.06,South,179,0.0,0.0,67,0.00,,,0.00,Wunderground v.1.15,2013-06-19 00:40:00,
2013-06-18 19:46:00,59.1,48.5,30.06,SSE,155,0.0,0.0,68,0.00,,,0.00,Wunderground v.1.15,2013-06-19 00:46:00,
2013-06-18 19:52:00,58.7,48.6,30.06,South,181,0.0,0.0,69,0.00,,,0.00,Wunderground v.1.15,2013-06-19 00:52:00,
2013-06-18 19:58:00,58.4,48.3,30.06,South,181,0.0,2.0,69,0.00,,,0.00,Wunderground v.1.15,2013-06-19 00:58:00,
2013-06-18 20:04:00,58.2,48.1,30.06,South,181,0.0,0.0,69,0.00,,,0.00,Wunderground v.1.15,2013-06-19 01:04:00,
2013-06-18 20:10:00,58.0,47.9,30.06,South,183,0.0,0.0,69,0.00,,,0.00,Wunderground v.1.15,2013-06-19 01:10:00,
2013-06-18 20:16:00,57.8,48.1,30.06,South,183,0.0,0.0,70,0.00,,,0.00,Wunderground v.1.15,2013-06-19 01:16:00,
2013-06-18 20:22:00,57.4,48.1,30.06,South,169,0.0,0.0,71,0.00,,,0.00,Wunderground v.1.15,2013-06-19 01:22:00,
2013-06-18 20:28:00,57.3,48.7,30.06,SW,229,0.0,0.0,73,0.00,,,0.00,Wunderground v.1.15,2013-06-19 01:28:00,
2013-06-18 20:34:00,57.2,48.6,30.06,SW,229,0.0,0.0,73,0.00,,,0.00,Wunderground v.1.15,2013-06-19 01:34:00,
2013-06-18 20:40:00,56.9,48.3,30.06,SW,229,0.0,0.0,73,0.00,,,0.00,Wunderground v.1.15,2013-06-19 01:40:00,
2013-06-18 20:46:00,56.8,48.2,30.06,SW,227,0.0,0.0,73,0.00,,,0.00,Wunderground v.1.15,2013-06-19 01:46:00,
2013-06-18 20:52:00,56.8,48.2,30.06,SW,227,0.0,0.0,73,0.00,,,0.00,Wunderground v.1.15,2013-06-19 01:52:00,
2013-06-18 20:58:00,56.6,48.0,30.06,SW,221,0.0,0.0,73,0.00,,,0.00,Wunderground v.1.15,2013-06-19 01:58:00,
2013-06-18 21:04:00,56.2,47.3,30.06,ENE,60,0.0,0.0,72,0.00,,,0.00,Wunderground v.1.15,2013-06-19 02:04:00,
2013-06-18 21:10:00,56.2,46.5,30.07,ENE,61,0.0,0.0,70,0.00,,,0.00,Wunderground v.1.15,2013-06-19 02:10:00,
2013-06-18 21:16:00,56.3,47.0,30.07,NNW,337,0.0,0.0,71,0.00,,,0.00,Wunderground v.1.15,2013-06-19 02:16:00,
2013-06-18 21:22:00,56.2,46.5,30.07,NNW,338,0.0,0.0,70,0.00,,,0.00,Wunderground v.1.15,2013-06-19 02:22:00,
2013-06-18 21:28:00,55.9,46.6,30.07,NNW,340,0.0,0.0,71,0.00,,,0.00,Wunderground v.1.15,2013-06-19 02:28:00,
2013-06-18 21:34:00,55.7,46.8,30.07,NNW,338,0.0,0.0,72,0.00,,,0.00,Wunderground v.1.15,2013-06-19 02:34:00,
2013-06-18 21:40:00,55.4,46.9,30.07,NNW,339,0.0,0.0,73,0.00,,,0.00,Wunderground v.1.15,2013-06-19 02:40:00,
2013-06-18 21:46:00,54.9,46.8,30.07,NNW,339,0.0,0.0,74,0.00,,,0.00,Wunderground v.1.15,2013-06-19 02:46:00,
2013-06-18 21:52:00,54.7,47.3,30.07,NNW,339,0.0,0.0,76,0.00,,,0.00,Wunderground v.1.15,2013-06-19 02:52:00,
2013-06-18 21:58:00,54.3,46.9,30.07,NNW,339,0.0,0.0,76,0.00,,,0.00,Wunderground v.1.15,2013-06-19 02:58:00,
2013-06-18 22:04:00,53.8,46.8,30.08,NNW,339,0.0,0.0,77,0.00,,,0.00,Wunderground v.1.15,2013-06-19 03:04:00,
2013-06-18 22:10:00,53.4,46.7,30.08,NNW,338,0.0,0.0,78,0.00,,,0.00,Wunderground v.1.15,2013-06-19 03:10:00,
2013-06-18 22:16:00,53.1,47.1,30.08,NNW,339,0.0,0.0,80,0.00,,,0.00,Wunderground v.1.15,2013-06-19 03:16:00,
2013-06-18 22:22:00,52.8,47.1,30.07,NNW,339,0.0,0.0,81,0.00,,,0.00,Wunderground v.1.15,2013-06-19 03:22:00,
2013-06-18 22:28:00,52.4,47.1,30.07,NNW,339,0.0,0.0,82,0.00,,,0.00,Wunderground v.1.15,2013-06-19 03:28:00,
2013-06-18 22:34:00,52.1,47.1,30.07,NNW,339,0.0,0.0,83,0.00,,,0.00,Wunderground v.1.15,2013-06-19 03:34:00,
2013-06-18 22:40:00,52.1,47.4,30.07,NNW,340,0.0,0.0,84,0.00,,,0.00,Wunderground v.1.15,2013-06-19 03:40:00,
2013-06-18 22:46:00,52.3,47.9,30.07,NNW,340,0.0,0.0,85,0.00,,,0.00,Wunderground v.1.15,2013-06-19 03:46:00,
2013-06-18 22:52:00,52.3,47.6,30.06,NNW,340,0.0,0.0,84,0.00,,,0.00,Wunderground v.1.15,2013-06-19 03:52:00,
2013-06-18 22:58:00,52.4,47.7,30.06,ENE,71,0.0,0.0,84,0.00,,,0.00,Wunderground v.1.15,2013-06-19 03:58:00,
2013-06-18 23:01:00,52.6,47.9,30.06,NNE,28,0.0,0.0,84,0.00,,,0.00,Wunderground v.1.15,2013-06-19 04:01:00,
2013-06-18 23:02:00,52.8,48.1,30.06,NNE,28,0.0,0.0,84,0.00,,,0.00,Wunderground v.1.15,2013-06-19 04:02:00,
2013-06-18 23:08:00,53.4,48.0,30.07,ENE,65,0.0,0.0,82,0.00,,,0.00,Wunderground v.1.15,2013-06-19 04:08:00,
2013-06-18 23:10:00,53.5,48.1,30.07,ENE,65,0.0,0.0,82,0.00,,,0.00,Wunderground v.1.15,2013-06-19 04:10:00,
2013-06-18 23:16:00,53.7,48.0,30.07,ENE,65,0.0,0.0,81,0.00,,,0.00,Wunderground v.1.15,2013-06-19 04:16:00,
2013-06-18 23:22:00,53.4,47.4,30.07,ENE,65,0.0,0.0,80,0.00,,,0.00,Wunderground v.1.15,2013-06-19 04:22:00,
2013-06-18 23:28:00,53.1,46.8,30.07,ENE,65,0.0,0.0,79,0.00,,,0.00,Wunderground v.1.15,2013-06-19 04:28:00,
2013-06-18 23:34:00,52.8,46.8,30.07,ENE,65,0.0,0.0,80,0.00,,,0.00,Wunderground v.1.15,2013-06-19 04:34:00,
2013-06-18 23:40:00,52.5,46.5,30.07,ENE,65,0.0,0.0,80,0.00,,,0.00,Wunderground v.1.15,2013-06-19 04:40:00,
2013-06-18 23:46:00,52.2,46.5,30.07,ENE,65,0.0,0.0,81,0.00,,,0.00,Wunderground v.1.15,2013-06-19 04:46:00,
2013-06-18 23:52:00,51.8,46.2,30.07,SE,128,0.0,0.0,81,0.00,,,0.00,Wunderground v.1.15,2013-06-19 04:52:00,
2013-06-18 23:58:00,51.5,46.2,30.07,SE,128,0.0,0.0,82,0.00,,,0.00,Wunderground v.1.15,2013-06-19 04:58:00,